Terminal Aerodrome Forecast
Issued by NWS Bismarck, ND

Home | Current Version | Previous Version | Graphics & Text | Print | Product List | Glossary On
Versions: 1 2 3 4 5 6 7 8 9 10 11 12 13 14 15 16 17 18 19 20
737
FTUS43 KBIS 240522
TAFISN
TAF
KISN 240522Z 2406/2506 27011G16KT P6SM FEW250
     FM240900 28009KT P6SM BKN090
     FM241100 29013G19KT P6SM BKN035
     FM241400 30020G28KT P6SM OVC025
     FM250500 32008KT P6SM BKN035=

USA.gov is the U.S. government's official web portal to all federal, state and local government web resources and services.